Time;durP1;ratioP1;P1;durP2;ratioP2;P2;SDS_P1;SDS_P2;PMS_P1;PMS_P2;Temp;Humidity;BMP_temperature;BMP_pressure;BME280_temperature;BME280_humidity;BME280_pressure;Samples;Min_cycle;Max_cycle;Signal;HPM_P1;HPM_P2
2022/11/15 00:01:43;;;;;;;8.70;3.10;;;;;;;;;;5036527;28;20353;-69
2022/11/15 00:04:10;;;;;;;9.18;3.15;;;;;;;;;;5034753;28;20564;-66
2022/11/15 00:06:36;;;;;;;7.90;3.50;;;;;;;;;;5033998;28;20060;-68
2022/11/15 00:09:02;;;;;;;6.85;3.30;;;;;;;;;;5035827;28;20416;-67
2022/11/15 00:11:28;;;;;;;7.57;3.00;;;;;;;;;;5039633;28;20347;-67
2022/11/15 00:13:58;;;;;;;8.35;3.38;;;;;;;;;;5038524;28;20423;-69
2022/11/15 00:16:24;;;;;;;9.63;3.72;;;;;;;;;;5033263;28;20048;-72
2022/11/15 00:18:51;;;;;;;7.22;3.33;;;;;;;;;;5034315;28;20148;-67
2022/11/15 00:21:17;;;;;;;6.20;2.95;;;;;;;;;;5033553;28;20059;-68
2022/11/15 00:23:43;;;;;;;7.10;3.33;;;;;;;;;;5038377;28;20942;-67
2022/11/15 00:26:12;;;;;;;9.05;3.10;;;;;;;;;;5038929;28;20580;-67
2022/11/15 00:28:38;;;;;;;9.65;3.20;;;;;;;;;;5033282;28;20506;-69
2022/11/15 00:31:06;;;;;;;8.63;3.25;;;;;;;;;;5038327;28;20898;-66
2022/11/15 00:33:33;;;;;;;5.93;2.90;;;;;;;;;;5040851;28;20053;-68
2022/11/15 00:36:04;;;;;;;6.72;3.05;;;;;;;;;;5036371;28;20052;-70
2022/11/15 00:38:32;;;;;;;9.07;3.45;;;;;;;;;;5010687;28;20054;-70
2022/11/15 00:40:58;;;;;;;6.57;3.40;;;;;;;;;;5034222;28;20048;-68
2022/11/15 00:43:24;;;;;;;5.72;3.20;;;;;;;;;;5038170;28;20045;-69
2022/11/15 00:46:02;;;;;;;9.23;3.40;;;;;;;;;;5032520;28;20045;-69
2022/11/15 00:48:28;;;;;;;10.27;3.25;;;;;;;;;;5032399;28;20045;-68
2022/11/15 00:50:54;;;;;;;8.32;3.30;;;;;;;;;;5032892;28;20083;-66
2022/11/15 00:53:20;;;;;;;9.15;3.63;;;;;;;;;;5023811;28;20063;-70
2022/11/15 00:55:46;;;;;;;5.47;3.20;;;;;;;;;;5036676;28;21183;-69
2022/11/15 00:58:12;;;;;;;10.75;3.65;;;;;;;;;;5029172;28;20053;-68
2022/11/15 01:00:38;;;;;;;8.13;3.60;;;;;;;;;;5016935;28;20491;-69
2022/11/15 01:03:04;;;;;;;6.55;4.00;;;;;;;;;;5035367;28;20113;-66
2022/11/15 01:05:30;;;;;;;7.35;3.13;;;;;;;;;;4998270;28;20114;-68
2022/11/15 01:07:56;;;;;;;5.00;3.20;;;;;;;;;;5020958;28;20053;-70
2022/11/15 01:10:23;;;;;;;11.00;3.17;;;;;;;;;;5030309;28;20048;-69
2022/11/15 01:12:49;;;;;;;6.90;3.58;;;;;;;;;;5033719;28;20122;-66
2022/11/15 01:15:15;;;;;;;6.60;3.22;;;;;;;;;;5040497;28;20056;-67
2022/11/15 01:17:42;;;;;;;11.60;3.40;;;;;;;;;;5032178;28;20061;-70
2022/11/15 01:20:09;;;;;;;9.52;4.03;;;;;;;;;;5032664;28;20094;-69
2022/11/15 01:22:35;;;;;;;12.90;3.88;;;;;;;;;;5033413;28;20053;-65
2022/11/15 01:25:00;;;;;;;5.80;3.30;;;;;;;;;;5026545;28;20520;-67
2022/11/15 01:27:26;;;;;;;7.40;2.63;;;;;;;;;;5028333;28;20080;-66
2022/11/15 01:29:52;;;;;;;9.55;3.15;;;;;;;;;;5029406;28;20056;-66
2022/11/15 01:32:18;;;;;;;8.63;3.33;;;;;;;;;;5035727;28;20674;-67
2022/11/15 01:34:44;;;;;;;5.13;3.20;;;;;;;;;;5036621;28;20063;-66
2022/11/15 01:37:10;;;;;;;7.30;3.08;;;;;;;;;;5019325;28;20060;-67
2022/11/15 01:39:36;;;;;;;8.02;3.63;;;;;;;;;;5028653;28;20380;-66
2022/11/15 01:42:02;;;;;;;6.75;3.67;;;;;;;;;;5037314;28;20037;-66
2022/11/15 01:44:31;;;;;;;6.00;3.17;;;;;;;;;;5039332;28;20162;-68
2022/11/15 01:47:00;;;;;;;13.43;3.45;;;;;;;;;;5037417;28;20429;-68
2022/11/15 01:49:28;;;;;;;7.15;3.60;;;;;;;;;;5031449;28;20053;-68
2022/11/15 01:51:54;;;;;;;8.30;3.42;;;;;;;;;;5032831;28;20386;-68
2022/11/15 01:54:22;;;;;;;7.50;3.03;;;;;;;;;;5031787;28;20094;-68
2022/11/15 01:56:54;;;;;;;6.78;2.92;;;;;;;;;;5033860;28;20178;-69
2022/11/15 01:59:20;;;;;;;7.03;3.10;;;;;;;;;;5028616;28;20102;-67
2022/11/15 02:01:46;;;;;;;7.25;2.67;;;;;;;;;;5036087;28;20053;-67
2022/11/15 02:04:16;;;;;;;7.03;2.90;;;;;;;;;;5035157;28;20056;-68
2022/11/15 02:06:44;;;;;;;6.78;2.90;;;;;;;;;;5034618;28;20049;-65
2022/11/15 02:09:10;;;;;;;7.93;2.72;;;;;;;;;;5029327;28;20076;-67
2022/11/15 02:11:37;;;;;;;8.27;2.97;;;;;;;;;;5029390;28;20438;-70
2022/11/15 02:14:04;;;;;;;6.85;3.10;;;;;;;;;;5036202;28;20048;-68
2022/11/15 02:16:33;;;;;;;6.10;2.88;;;;;;;;;;5036380;28;20053;-68
2022/11/15 02:19:33;;;;;;;7.53;2.75;;;;;;;;;;5032446;28;20053;-68
2022/11/15 02:22:28;;;;;;;7.25;2.83;;;;;;;;;;5039522;28;20052;-70
2022/11/15 02:25:18;;;;;;;6.40;2.63;;;;;;;;;;5040531;28;20041;-70
2022/11/15 02:27:47;;;;;;;8.48;2.92;;;;;;;;;;5031546;28;20053;-68
2022/11/15 02:30:43;;;;;;;7.10;2.80;;;;;;;;;;5036588;28;20064;-67
2022/11/15 02:33:23;;;;;;;7.00;2.80;;;;;;;;;;5041362;28;20064;-67
2022/11/15 02:36:01;;;;;;;8.27;3.20;;;;;;;;;;5041619;28;20044;-68
2022/11/15 02:38:49;;;;;;;8.10;3.03;;;;;;;;;;5034264;28;20051;-70
2022/11/15 02:41:25;;;;;;;7.22;2.55;;;;;;;;;;5038238;28;20690;-67
2022/11/15 02:44:03;;;;;;;9.00;3.28;;;;;;;;;;5037516;28;20056;-67
2022/11/15 02:49:37;;;;;;;4.93;2.60;;;;;;;;;;5028060;28;20055;-68
2022/11/15 02:52:03;;;;;;;6.22;2.92;;;;;;;;;;5040841;28;20040;-67
2022/11/15 02:54:32;;;;;;;6.65;2.50;;;;;;;;;;5034323;28;20060;-70
2022/11/15 02:57:04;;;;;;;6.25;2.92;;;;;;;;;;5041812;28;20041;-66
2022/11/15 02:59:58;;;;;;;5.40;2.97;;;;;;;;;;5026764;28;20122;-66
2022/11/15 03:02:39;;;;;;;7.15;3.03;;;;;;;;;;5036845;28;20047;-67
2022/11/15 03:05:53;;;;;;;5.90;3.22;;;;;;;;;;5039548;28;20056;-66
2022/11/15 03:08:34;;;;;;;9.13;2.60;;;;;;;;;;5025129;28;20063;-65
2022/11/15 03:11:08;;;;;;;5.85;2.70;;;;;;;;;;5034030;28;20051;-67
2022/11/15 03:13:55;;;;;;;8.33;2.70;;;;;;;;;;5038160;28;20075;-68
2022/11/15 03:16:50;;;;;;;6.35;2.50;;;;;;;;;;5025821;28;20064;-68
2022/11/15 03:19:58;;;;;;;6.03;2.58;;;;;;;;;;5032497;28;20172;-67
2022/11/15 03:22:29;;;;;;;8.30;3.10;;;;;;;;;;5007383;28;20455;-65
2022/11/15 03:25:01;;;;;;;10.15;3.08;;;;;;;;;;5035473;28;20056;-67
2022/11/15 03:27:37;;;;;;;7.35;2.83;;;;;;;;;;5034453;28;20052;-68
2022/11/15 03:30:07;;;;;;;12.65;2.95;;;;;;;;;;5015164;28;20513;-66
2022/11/15 03:32:44;;;;;;;5.32;3.00;;;;;;;;;;5033340;28;20052;-70
2022/11/15 03:35:21;;;;;;;6.82;2.97;;;;;;;;;;5037522;28;20076;-67
2022/11/15 03:38:05;;;;;;;6.55;3.42;;;;;;;;;;5032360;28;20085;-68
2022/11/15 03:40:36;;;;;;;6.15;3.00;;;;;;;;;;5040920;28;20087;-68
2022/11/15 03:43:11;;;;;;;4.75;2.97;;;;;;;;;;5041498;28;20036;-67
2022/11/15 03:45:55;;;;;;;10.25;3.20;;;;;;;;;;5039406;28;20140;-67
2022/11/15 03:48:26;;;;;;;12.18;3.38;;;;;;;;;;5026454;28;20056;-68
2022/11/15 03:50:53;;;;;;;7.30;3.17;;;;;;;;;;5037379;28;20068;-66
2022/11/15 03:53:19;;;;;;;7.65;3.30;;;;;;;;;;5040370;28;20541;-67
2022/11/15 03:55:44;;;;;;;6.72;2.88;;;;;;;;;;5037533;28;20052;-66
2022/11/15 03:58:10;;;;;;;5.70;2.72;;;;;;;;;;5030150;28;20061;-67
2022/11/15 04:00:36;;;;;;;6.63;3.08;;;;;;;;;;5037796;28;20482;-66
2022/11/15 04:03:02;;;;;;;8.27;2.50;;;;;;;;;;5035646;28;20041;-67
2022/11/15 04:05:28;;;;;;;6.45;2.50;;;;;;;;;;5037313;28;20056;-67
2022/11/15 04:07:54;;;;;;;4.78;2.55;;;;;;;;;;5035973;28;20052;-69
2022/11/15 04:10:20;;;;;;;6.72;2.40;;;;;;;;;;5037242;28;20049;-69
2022/11/15 04:12:47;;;;;;;5.80;2.67;;;;;;;;;;5037795;28;20048;-66
2022/11/15 04:15:18;;;;;;;6.75;2.67;;;;;;;;;;5038315;28;20066;-65
2022/11/15 04:17:52;;;;;;;5.15;2.50;;;;;;;;;;5034277;28;20378;-65
2022/11/15 04:25:58;;;;;;;5.93;2.42;;;;;;;;;;5034425;28;20518;-70
2022/11/15 04:28:24;;;;;;;7.55;2.40;;;;;;;;;;5036148;28;20319;-67
2022/11/15 04:30:50;;;;;;;6.93;2.28;;;;;;;;;;5037167;28;20106;-67
2022/11/15 04:33:16;;;;;;;6.60;2.08;;;;;;;;;;5033877;28;20122;-65
2022/11/15 04:35:42;;;;;;;5.68;2.33;;;;;;;;;;5035494;28;20572;-69
2022/11/15 04:38:10;;;;;;;5.10;2.22;;;;;;;;;;5032201;28;20760;-68
2022/11/15 04:40:37;;;;;;;5.45;2.00;;;;;;;;;;5036949;28;20747;-65
2022/11/15 04:43:04;;;;;;;6.30;2.20;;;;;;;;;;5036530;28;20061;-73
2022/11/15 04:45:30;;;;;;;3.25;1.80;;;;;;;;;;5036085;28;20144;-66
2022/11/15 04:47:56;;;;;;;4.90;2.15;;;;;;;;;;5034235;28;20165;-71
2022/11/15 04:50:22;;;;;;;6.50;2.42;;;;;;;;;;5038326;28;20667;-67
2022/11/15 04:52:53;;;;;;;4.75;1.77;;;;;;;;;;5033852;28;20052;-65
2022/11/15 04:55:19;;;;;;;5.70;2.00;;;;;;;;;;5035767;28;20070;-65
2022/11/15 04:57:45;;;;;;;3.15;1.77;;;;;;;;;;5034400;28;20948;-66
2022/11/15 05:00:14;;;;;;;9.40;2.28;;;;;;;;;;5035784;28;20053;-69
2022/11/15 05:05:28;;;;;;;4.78;1.90;;;;;;;;;;4993031;28;20061;-70
2022/11/15 05:07:54;;;;;;;5.18;2.20;;;;;;;;;;4987559;28;20066;-71
2022/11/15 05:10:20;;;;;;;6.03;2.00;;;;;;;;;;4990455;28;20058;-66
2022/11/15 05:12:47;;;;;;;5.05;1.80;;;;;;;;;;4991398;28;20053;-69
2022/11/15 05:15:12;;;;;;;8.80;2.13;;;;;;;;;;4992700;28;20140;-66
2022/11/15 05:17:38;;;;;;;6.03;1.85;;;;;;;;;;4988691;28;20458;-67
2022/11/15 05:20:05;;;;;;;4.25;1.58;;;;;;;;;;4967441;28;20519;-67
2022/11/15 05:22:31;;;;;;;3.72;1.77;;;;;;;;;;4996095;28;20542;-68
2022/11/15 05:24:56;;;;;;;3.78;1.90;;;;;;;;;;4995583;28;20145;-67
2022/11/15 05:27:22;;;;;;;8.05;1.75;;;;;;;;;;4995413;28;20512;-68
2022/11/15 05:29:48;;;;;;;5.35;1.75;;;;;;;;;;4994830;28;20056;-66
2022/11/15 05:32:16;;;;;;;3.53;1.67;;;;;;;;;;4985720;28;20072;-72
2022/11/15 05:34:42;;;;;;;2.38;1.75;;;;;;;;;;4988673;28;20267;-71
2022/11/15 05:37:08;;;;;;;2.83;1.50;;;;;;;;;;4992052;28;20054;-66
2022/11/15 05:39:33;;;;;;;11.30;2.10;;;;;;;;;;4990518;28;20053;-69
2022/11/15 05:42:09;;;;;;;5.32;1.90;;;;;;;;;;5003333;28;20045;-68
2022/11/15 05:44:36;;;;;;;3.03;1.50;;;;;;;;;;5039189;28;20052;-68
2022/11/15 05:47:05;;;;;;;2.95;1.50;;;;;;;;;;5034763;28;20313;-68
2022/11/15 05:49:36;;;;;;;4.25;1.48;;;;;;;;;;5034049;28;20052;-70
2022/11/15 05:52:07;;;;;;;2.08;1.30;;;;;;;;;;5027369;28;20069;-68
2022/11/15 05:54:35;;;;;;;4.32;1.45;;;;;;;;;;5033661;28;20484;-68
2022/11/15 05:57:01;;;;;;;2.03;1.42;;;;;;;;;;5031059;28;20494;-69
2022/11/15 05:59:30;;;;;;;3.67;1.45;;;;;;;;;;5037110;28;20094;-71
2022/11/15 06:01:56;;;;;;;6.60;1.90;;;;;;;;;;5033982;28;20060;-66
2022/11/15 06:04:22;;;;;;;7.63;1.52;;;;;;;;;;5033008;28;20316;-70
2022/11/15 06:06:48;;;;;;;8.40;2.00;;;;;;;;;;5035969;28;20049;-67
2022/11/15 06:09:14;;;;;;;6.78;1.70;;;;;;;;;;5032390;28;20056;-68
2022/11/15 06:11:40;;;;;;;3.85;1.60;;;;;;;;;;5027806;28;20049;-70
2022/11/15 06:14:06;;;;;;;2.53;1.50;;;;;;;;;;5036595;28;20082;-67
2022/11/15 06:16:32;;;;;;;2.92;1.60;;;;;;;;;;5035425;28;20520;-71
2022/11/15 06:18:58;;;;;;;6.07;2.20;;;;;;;;;;5030290;28;20061;-68
2022/11/15 06:21:24;;;;;;;5.40;1.80;;;;;;;;;;5038540;28;20053;-71
2022/11/15 06:23:50;;;;;;;6.45;1.67;;;;;;;;;;5040414;28;20053;-66
2022/11/15 06:26:16;;;;;;;4.03;1.85;;;;;;;;;;5031648;28;20056;-69
2022/11/15 06:28:41;;;;;;;4.65;1.80;;;;;;;;;;5034718;28;20352;-65
2022/11/15 06:31:10;;;;;;;3.08;1.60;;;;;;;;;;5036336;28;20061;-68
2022/11/15 06:33:38;;;;;;;4.45;1.70;;;;;;;;;;5040169;28;20624;-66
2022/11/15 06:36:07;;;;;;;6.13;2.00;;;;;;;;;;5039820;28;20411;-70
2022/11/15 06:38:34;;;;;;;4.93;2.00;;;;;;;;;;5022307;28;20063;-68
2022/11/15 06:41:09;;;;;;;9.52;1.90;;;;;;;;;;5016877;28;20037;-72
2022/11/15 06:43:36;;;;;;;6.93;2.00;;;;;;;;;;5032125;28;20059;-70
2022/11/15 06:46:04;;;;;;;4.43;1.83;;;;;;;;;;5033240;28;20056;-69
2022/11/15 06:48:31;;;;;;;4.35;1.60;;;;;;;;;;5030168;28;20037;-69
2022/11/15 06:50:59;;;;;;;6.93;1.83;;;;;;;;;;5033913;28;20098;-70
2022/11/15 06:53:25;;;;;;;2.40;1.77;;;;;;;;;;5037422;28;20053;-69
2022/11/15 06:55:52;;;;;;;5.22;1.80;;;;;;;;;;5044313;28;20041;-69
2022/11/15 06:58:18;;;;;;;6.43;1.80;;;;;;;;;;5037339;28;20496;-67
2022/11/15 07:00:44;;;;;;;4.90;2.05;;;;;;;;;;5031072;28;20053;-69
2022/11/15 07:03:10;;;;;;;5.38;2.30;;;;;;;;;;5035947;28;20150;-67
2022/11/15 07:05:36;;;;;;;7.18;2.22;;;;;;;;;;5017879;28;20110;-68
2022/11/15 07:08:03;;;;;;;4.15;1.98;;;;;;;;;;5014789;28;20037;-68
2022/11/15 07:10:29;;;;;;;6.95;2.33;;;;;;;;;;5034622;28;20052;-69
2022/11/15 07:12:56;;;;;;;4.82;2.10;;;;;;;;;;5040331;28;20044;-72
2022/11/15 07:15:26;;;;;;;5.20;2.08;;;;;;;;;;5032313;28;20049;-65
2022/11/15 07:17:52;;;;;;;3.53;2.00;;;;;;;;;;5029999;28;21097;-67
2022/11/15 07:20:18;;;;;;;8.30;2.25;;;;;;;;;;5036026;28;20527;-68
2022/11/15 07:22:47;;;;;;;6.47;1.85;;;;;;;;;;5031022;28;20040;-69
2022/11/15 07:25:13;;;;;;;5.30;2.10;;;;;;;;;;5035668;28;20114;-67
2022/11/15 07:27:38;;;;;;;7.75;1.95;;;;;;;;;;5028789;28;20048;-66
2022/11/15 07:30:05;;;;;;;6.20;2.60;;;;;;;;;;5037110;28;20504;-69
2022/11/15 07:32:31;;;;;;;8.20;2.50;;;;;;;;;;5035682;28;20052;-69
2022/11/15 07:34:57;;;;;;;9.05;2.30;;;;;;;;;;5035415;28;20041;-67
2022/11/15 07:37:23;;;;;;;8.70;2.42;;;;;;;;;;5041940;28;21296;-69
2022/11/15 07:39:49;;;;;;;10.15;2.25;;;;;;;;;;5032261;28;20061;-69
2022/11/15 07:44:59;;;;;;;7.95;2.80;;;;;;;;;;5035772;28;20436;-68
2022/11/15 07:47:28;;;;;;;9.07;2.40;;;;;;;;;;5039777;28;20057;-68
2022/11/15 07:49:54;;;;;;;14.70;3.08;;;;;;;;;;5036030;28;20052;-68
2022/11/15 07:52:20;;;;;;;6.25;2.00;;;;;;;;;;5035229;28;20040;-66
2022/11/15 07:54:46;;;;;;;5.97;2.40;;;;;;;;;;5035812;28;20049;-69
2022/11/15 07:57:12;;;;;;;5.38;2.15;;;;;;;;;;5034827;28;20110;-69
2022/11/15 07:59:38;;;;;;;7.05;2.17;;;;;;;;;;5034759;28;20064;-68
2022/11/15 08:02:03;;;;;;;4.53;2.30;;;;;;;;;;5030993;28;20064;-70
2022/11/15 08:04:30;;;;;;;9.98;2.40;;;;;;;;;;5035084;28;20049;-72
2022/11/15 08:06:57;;;;;;;5.20;2.50;;;;;;;;;;5036628;28;20045;-68
2022/11/15 08:09:23;;;;;;;7.25;2.50;;;;;;;;;;5034277;28;20045;-65
2022/11/15 08:11:48;;;;;;;5.70;2.67;;;;;;;;;;5034770;28;20071;-67
2022/11/15 08:14:14;;;;;;;5.32;2.60;;;;;;;;;;5040364;28;20058;-70
2022/11/15 08:16:40;;;;;;;8.13;2.60;;;;;;;;;;5033598;28;20095;-68
2022/11/15 08:19:06;;;;;;;5.70;2.42;;;;;;;;;;5034788;28;20543;-71
2022/11/15 08:21:32;;;;;;;6.57;2.63;;;;;;;;;;5029787;28;20115;-68
2022/11/15 08:23:58;;;;;;;6.80;2.50;;;;;;;;;;5037440;28;20045;-66
2022/11/15 08:26:27;;;;;;;5.53;2.50;;;;;;;;;;5032663;28;20080;-69
2022/11/15 08:28:53;;;;;;;7.95;2.70;;;;;;;;;;5032723;28;20044;-66
2022/11/15 08:31:19;;;;;;;9.05;2.75;;;;;;;;;;5028336;28;20071;-66
2022/11/15 08:33:45;;;;;;;11.80;2.70;;;;;;;;;;5036067;28;20064;-67
2022/11/15 08:36:15;;;;;;;9.02;2.70;;;;;;;;;;5017101;28;20432;-67
2022/11/15 08:38:42;;;;;;;7.30;2.92;;;;;;;;;;5035212;28;20053;-68
2022/11/15 08:41:19;;;;;;;10.15;3.17;;;;;;;;;;5035928;28;20056;-69
2022/11/15 08:43:45;;;;;;;4.60;2.45;;;;;;;;;;5036706;28;20064;-67
2022/11/15 08:46:13;;;;;;;10.60;3.10;;;;;;;;;;5032402;28;20045;-68
2022/11/15 08:48:39;;;;;;;8.20;3.05;;;;;;;;;;5034932;28;20433;-69
2022/11/15 08:51:05;;;;;;;5.15;2.63;;;;;;;;;;5038932;28;20048;-71
2022/11/15 08:53:32;;;;;;;6.22;3.17;;;;;;;;;;5034466;28;20595;-67
2022/11/15 08:55:57;;;;;;;9.30;3.15;;;;;;;;;;5036526;28;20056;-73
2022/11/15 08:58:24;;;;;;;10.57;2.70;;;;;;;;;;5017056;28;20056;-66
2022/11/15 09:00:49;;;;;;;10.80;3.55;;;;;;;;;;5039351;28;20044;-67
2022/11/15 09:03:15;;;;;;;6.75;3.30;;;;;;;;;;5034619;28;20106;-68
2022/11/15 09:05:41;;;;;;;9.27;3.65;;;;;;;;;;5039346;28;20056;-65
2022/11/15 09:08:07;;;;;;;6.45;3.28;;;;;;;;;;5028035;28;20105;-70
2022/11/15 09:10:33;;;;;;;9.00;3.17;;;;;;;;;;5017190;28;20513;-69
2022/11/15 09:12:59;;;;;;;9.85;3.17;;;;;;;;;;5034700;28;20383;-67
2022/11/15 09:15:25;;;;;;;5.57;2.80;;;;;;;;;;5036642;28;20053;-68
2022/11/15 09:17:51;;;;;;;8.07;2.70;;;;;;;;;;5032790;28;20057;-71
2022/11/15 09:20:17;;;;;;;8.60;2.90;;;;;;;;;;5033728;28;20057;-69
2022/11/15 09:22:43;;;;;;;8.25;3.10;;;;;;;;;;5033693;28;20052;-65
2022/11/15 09:25:09;;;;;;;7.20;2.83;;;;;;;;;;5033599;28;20053;-68
2022/11/15 09:27:35;;;;;;;8.32;3.35;;;;;;;;;;5034708;28;20534;-69
2022/11/15 09:30:00;;;;;;;14.60;3.78;;;;;;;;;;5034546;28;20049;-72
2022/11/15 09:32:32;;;;;;;13.15;3.47;;;;;;;;;;5031998;28;20051;-68
2022/11/15 09:34:58;;;;;;;7.65;3.28;;;;;;;;;;5026829;28;20559;-69
2022/11/15 09:37:24;;;;;;;6.78;2.67;;;;;;;;;;5034275;28;20049;-67
2022/11/15 09:39:50;;;;;;;6.68;2.90;;;;;;;;;;5022333;28;20056;-67
2022/11/15 09:42:34;;;;;;;8.43;3.28;;;;;;;;;;5035440;28;20056;-66
2022/11/15 09:45:13;;;;;;;7.77;2.70;;;;;;;;;;5040184;28;20131;-71
2022/11/15 09:47:50;;;;;;;9.77;3.08;;;;;;;;;;5038366;28;20095;-69
2022/11/15 09:50:31;;;;;;;13.25;3.20;;;;;;;;;;5038314;28;20187;-68
2022/11/15 09:52:57;;;;;;;8.52;2.58;;;;;;;;;;5042627;28;20102;-67
2022/11/15 09:55:49;;;;;;;8.30;3.30;;;;;;;;;;5023171;28;20044;-70
2022/11/15 09:58:35;;;;;;;6.97;2.80;;;;;;;;;;5036554;28;20053;-65
2022/11/15 10:01:13;;;;;;;7.40;2.60;;;;;;;;;;5032297;28;20095;-69
2022/11/15 10:03:41;;;;;;;9.82;2.75;;;;;;;;;;5037562;28;21311;-71
2022/11/15 10:06:26;;;;;;;6.68;2.75;;;;;;;;;;5044216;28;20048;-67
2022/11/15 10:09:10;;;;;;;9.50;2.58;;;;;;;;;;5032371;28;20273;-68
2022/11/15 10:11:37;;;;;;;5.90;2.40;;;;;;;;;;5038965;28;20053;-71
2022/11/15 10:14:17;;;;;;;6.30;2.70;;;;;;;;;;5035997;28;20130;-72
2022/11/15 10:17:10;;;;;;;7.88;2.90;;;;;;;;;;5039430;28;20136;-67
2022/11/15 10:19:42;;;;;;;9.27;3.10;;;;;;;;;;5036080;28;20078;-69
2022/11/15 10:22:21;;;;;;;7.03;2.90;;;;;;;;;;5036942;28;20055;-70
2022/11/15 10:24:47;;;;;;;4.07;2.30;;;;;;;;;;5035307;28;20376;-66
2022/11/15 10:27:18;;;;;;;5.22;2.20;;;;;;;;;;5034349;28;20091;-67
2022/11/15 10:29:49;;;;;;;3.83;2.10;;;;;;;;;;5037243;28;20044;-65
2022/11/15 10:32:21;;;;;;;4.18;2.00;;;;;;;;;;5036073;28;20048;-64
2022/11/15 10:34:48;;;;;;;6.15;2.17;;;;;;;;;;5040188;28;21402;-64
2022/11/15 10:37:14;;;;;;;2.53;1.73;;;;;;;;;;5034336;28;20072;-67
2022/11/15 10:39:40;;;;;;;4.95;2.53;;;;;;;;;;5033551;28;20526;-69
2022/11/15 10:42:27;;;;;;;3.90;2.13;;;;;;;;;;5033357;28;20064;-69
2022/11/15 10:44:53;;;;;;;8.65;1.80;;;;;;;;;;5035618;28;20491;-66
2022/11/15 10:47:28;;;;;;;3.42;1.92;;;;;;;;;;5038251;28;20258;-66
2022/11/15 10:50:04;;;;;;;5.50;2.28;;;;;;;;;;5039147;28;20060;-70
2022/11/15 10:52:31;;;;;;;4.78;1.67;;;;;;;;;;5039184;28;20628;-67
2022/11/15 10:55:03;;;;;;;5.93;1.92;;;;;;;;;;5037566;28;20427;-68
2022/11/15 10:57:32;;;;;;;3.75;1.90;;;;;;;;;;5035860;28;20045;-72
2022/11/15 11:00:03;;;;;;;3.92;1.60;;;;;;;;;;5033770;28;20060;-71
2022/11/15 11:02:37;;;;;;;7.72;1.98;;;;;;;;;;5019058;28;20172;-69
2022/11/15 11:05:24;;;;;;;4.07;1.88;;;;;;;;;;5044280;28;20041;-69
2022/11/15 11:07:57;;;;;;;8.82;2.00;;;;;;;;;;5039292;28;20598;-67
2022/11/15 11:11:10;;;;;;;3.58;1.70;;;;;;;;;;5025865;28;20045;-67
2022/11/15 11:13:39;;;;;;;3.50;1.75;;;;;;;;;;5033501;28;20192;-67
2022/11/15 11:16:14;;;;;;;5.32;2.10;;;;;;;;;;5037376;28;20118;-68
2022/11/15 11:19:00;;;;;;;3.55;2.00;;;;;;;;;;5034818;28;20068;-68
2022/11/15 11:22:12;;;;;;;3.75;1.85;;;;;;;;;;5030871;28;20144;-68
2022/11/15 11:24:56;;;;;;;4.18;1.95;;;;;;;;;;5036236;28;20059;-71
2022/11/15 11:27:40;;;;;;;9.82;1.75;;;;;;;;;;5036706;28;20152;-68
2022/11/15 11:30:16;;;;;;;7.63;2.10;;;;;;;;;;5041236;28;20056;-67
2022/11/15 11:33:10;;;;;;;7.65;1.75;;;;;;;;;;5036292;28;20414;-70
2022/11/15 11:36:13;;;;;;;5.03;1.85;;;;;;;;;;5016998;28;20051;-71
2022/11/15 11:38:57;;;;;;;3.05;1.50;;;;;;;;;;5035069;28;20055;-69
2022/11/15 11:41:41;;;;;;;5.85;1.75;;;;;;;;;;5041398;28;20474;-66
2022/11/15 11:44:35;;;;;;;7.05;1.40;;;;;;;;;;5036045;28;20403;-68
2022/11/15 11:47:10;;;;;;;3.65;1.40;;;;;;;;;;5034742;28;20075;-68
2022/11/15 11:49:44;;;;;;;4.30;1.60;;;;;;;;;;5030582;28;20053;-66
2022/11/15 11:52:16;;;;;;;3.55;1.30;;;;;;;;;;5035301;28;20049;-68
2022/11/15 11:54:55;;;;;;;5.93;1.55;;;;;;;;;;5036679;28;20041;-67
2022/11/15 11:57:42;;;;;;;7.22;1.60;;;;;;;;;;5032429;28;20053;-67
2022/11/15 12:00:20;;;;;;;2.75;1.20;;;;;;;;;;5039017;28;20052;-68
2022/11/15 12:03:18;;;;;;;1.85;1.10;;;;;;;;;;5032669;28;20045;-66
2022/11/15 12:06:01;;;;;;;2.30;1.35;;;;;;;;;;5009105;28;20057;-69
2022/11/15 12:08:40;;;;;;;6.13;1.40;;;;;;;;;;5034059;28;21236;-73
2022/11/15 12:11:25;;;;;;;2.35;1.38;;;;;;;;;;5040472;28;20044;-67
2022/11/15 12:13:55;;;;;;;;;;;;;;;;;;5038333;28;20044;-67
2022/11/15 12:16:23;;;;;;;3.85;1.77;;;;;;;;;;5038613;28;19928;-67
2022/11/15 12:18:53;;;;;;;10.80;1.38;;;;;;;;;;5014989;28;20071;-68
2022/11/15 12:21:36;;;;;;;2.95;1.27;;;;;;;;;;5030193;28;20071;-65
2022/11/15 12:24:16;;;;;;;4.88;1.60;;;;;;;;;;5039231;28;20044;-69
2022/11/15 12:26:54;;;;;;;1.85;1.10;;;;;;;;;;5036455;28;20425;-67
2022/11/15 12:29:28;;;;;;;3.40;1.10;;;;;;;;;;5031833;28;20049;-68
2022/11/15 12:31:56;;;;;;;;;;;;;;;;;;5017337;28;20319;-67
2022/11/15 12:34:22;;;;;;;5.30;1.00;;;;;;;;;;5040415;28;19924;-70
2022/11/15 12:36:50;;;;;;;6.00;1.20;;;;;;;;;;5034492;28;20593;-69
2022/11/15 12:39:17;;;;;;;4.93;1.38;;;;;;;;;;5030445;28;20056;-75
2022/11/15 12:41:56;;;;;;;2.17;1.10;;;;;;;;;;5018272;28;20300;-70
2022/11/15 12:44:31;;;;;;;4.88;1.45;;;;;;;;;;5038775;28;20389;-70
2022/11/15 12:46:56;;;;;;;2.40;1.13;;;;;;;;;;5039399;28;20045;-70
2022/11/15 12:49:25;;;;;;;1.40;1.10;;;;;;;;;;5037134;28;21062;-68
2022/11/15 12:51:54;;;;;;;2.83;1.00;;;;;;;;;;5039279;28;20049;-67
2022/11/15 12:54:23;;;;;;;1.17;0.88;;;;;;;;;;5036012;28;20580;-71
2022/11/15 12:57:07;;;;;;;2.63;1.23;;;;;;;;;;5034902;28;20053;-68
2022/11/15 12:59:51;;;;;;;5.43;1.30;;;;;;;;;;5034985;28;20049;-69
2022/11/15 13:02:25;;;;;;;2.35;1.08;;;;;;;;;;5032849;28;20057;-69
2022/11/15 13:04:54;;;;;;;3.05;1.20;;;;;;;;;;5035902;28;20057;-69
2022/11/15 13:07:56;;;;;;;3.17;1.13;;;;;;;;;;5039962;28;20477;-69
2022/11/15 13:10:25;;;;;;;3.42;1.20;;;;;;;;;;5001658;28;20056;-67
2022/11/15 13:12:55;;;;;;;4.75;1.20;;;;;;;;;;5040363;28;20052;-71
2022/11/15 13:15:24;;;;;;;1.33;1.10;;;;;;;;;;5037633;28;20203;-70
2022/11/15 13:17:57;;;;;;;4.95;1.20;;;;;;;;;;5033393;28;20065;-67
2022/11/15 13:20:27;;;;;;;2.92;1.20;;;;;;;;;;5034994;28;20056;-69
2022/11/15 13:23:07;;;;;;;1.83;1.15;;;;;;;;;;5038394;28;20049;-71
2022/11/15 13:25:39;;;;;;;1.70;1.10;;;;;;;;;;5032437;28;20048;-71
2022/11/15 13:28:22;;;;;;;2.75;1.00;;;;;;;;;;5036821;28;20045;-69
2022/11/15 13:30:47;;;;;;;2.20;1.20;;;;;;;;;;5038806;28;20056;-69
2022/11/15 13:33:20;;;;;;;2.80;1.02;;;;;;;;;;5041349;28;20135;-72
2022/11/15 13:35:50;;;;;;;4.20;0.90;;;;;;;;;;5036727;28;20147;-68
2022/11/15 13:38:37;;;;;;;4.88;1.08;;;;;;;;;;5035630;28;20061;-68
2022/11/15 13:41:21;;;;;;;2.22;0.90;;;;;;;;;;5036868;28;20258;-70
2022/11/15 13:43:49;;;;;;;1.58;0.80;;;;;;;;;;5032126;28;20060;-72
2022/11/15 13:46:17;;;;;;;1.67;0.90;;;;;;;;;;5035159;28;20045;-69
2022/11/15 13:48:45;;;;;;;1.25;0.77;;;;;;;;;;5036373;28;20053;-69
2022/11/15 13:51:34;;;;;;;0.90;0.80;;;;;;;;;;5039884;28;20051;-69
2022/11/15 13:54:17;;;;;;;2.53;1.13;;;;;;;;;;5022350;28;20061;-71
2022/11/15 13:56:55;;;;;;;1.48;1.02;;;;;;;;;;5038990;28;20386;-70
2022/11/15 13:59:30;;;;;;;2.67;1.10;;;;;;;;;;5035662;28;20128;-67
2022/11/15 14:01:59;;;;;;;2.42;1.05;;;;;;;;;;5037571;28;20057;-72
2022/11/15 14:04:29;;;;;;;2.30;0.80;;;;;;;;;;5039604;28;20060;-68
2022/11/15 14:06:57;;;;;;;3.05;0.93;;;;;;;;;;5040200;28;20088;-70
2022/11/15 14:09:45;;;;;;;2.35;1.00;;;;;;;;;;5035137;28;20052;-66
2022/11/15 14:12:27;;;;;;;2.38;0.90;;;;;;;;;;5039920;28;20056;-71
2022/11/15 14:14:53;;;;;;;3.00;0.90;;;;;;;;;;5041022;28;20053;-75
2022/11/15 14:17:29;;;;;;;3.83;1.08;;;;;;;;;;5044247;28;20064;-69
2022/11/15 14:19:57;;;;;;;7.97;1.30;;;;;;;;;;5040525;28;20071;-69
2022/11/15 14:22:28;;;;;;;3.75;0.80;;;;;;;;;;5042872;28;20053;-70
2022/11/15 14:25:04;;;;;;;3.60;1.40;;;;;;;;;;5038771;28;20099;-70
2022/11/15 14:27:30;;;;;;;8.73;1.30;;;;;;;;;;5032281;28;20052;-70
2022/11/15 14:29:56;;;;;;;7.63;1.30;;;;;;;;;;5038436;28;20053;-71
2022/11/15 14:32:22;;;;;;;7.03;1.30;;;;;;;;;;5041806;28;20060;-72
2022/11/15 14:34:55;;;;;;;3.35;0.90;;;;;;;;;;5036024;28;20050;-69
2022/11/15 14:37:24;;;;;;;3.67;1.40;;;;;;;;;;5040585;28;21441;-72
2022/11/15 14:39:51;;;;;;;1.40;0.88;;;;;;;;;;5034285;28;20056;-68
2022/11/15 14:42:17;;;;;;;3.55;0.93;;;;;;;;;;5042504;28;20064;-67
2022/11/15 14:44:44;;;;;;;3.38;1.05;;;;;;;;;;5043013;28;20076;-71
2022/11/15 14:47:09;;;;;;;3.88;1.15;;;;;;;;;;5044316;28;20056;-69
2022/11/15 14:49:36;;;;;;;2.47;1.00;;;;;;;;;;5031395;28;20049;-72
2022/11/15 14:52:01;;;;;;;1.30;0.90;;;;;;;;;;5040167;28;20552;-70
2022/11/15 14:54:27;;;;;;;2.50;1.20;;;;;;;;;;5038071;28;20049;-70
2022/11/15 14:56:53;;;;;;;2.47;1.15;;;;;;;;;;5040059;28;20114;-68
2022/11/15 14:59:19;;;;;;;3.03;1.17;;;;;;;;;;5035127;28;20060;-69
2022/11/15 15:01:45;;;;;;;2.67;1.02;;;;;;;;;;5036037;28;20068;-68
2022/11/15 15:04:11;;;;;;;3.05;0.85;;;;;;;;;;5040290;28;20061;-70
2022/11/15 15:06:36;;;;;;;3.78;1.20;;;;;;;;;;5039655;28;20402;-70
2022/11/15 15:09:03;;;;;;;5.28;1.10;;;;;;;;;;5019206;28;20056;-70
2022/11/15 15:11:31;;;;;;;14.60;1.00;;;;;;;;;;5043689;28;20347;-71
2022/11/15 15:14:00;;;;;;;5.13;1.00;;;;;;;;;;5041782;28;20544;-70
2022/11/15 15:16:27;;;;;;;2.17;1.10;;;;;;;;;;5040813;28;20048;-70
2022/11/15 15:18:53;;;;;;;3.38;1.00;;;;;;;;;;5040389;28;20056;-77
2022/11/15 15:21:25;;;;;;;1.95;0.98;;;;;;;;;;5042294;28;20057;-69